Time;durP1;ratioP1;P1;durP2;ratioP2;P2;SDS_P1;SDS_P2;PMS_P1;PMS_P2;Temp;Humidity;BMP_temperature;BMP_pressure;BME280_temperature;BME280_humidity;BME280_pressure;Samples;Min_cycle;Max_cycle;Signal;HPM_P1;HPM_P2
2021/09/14 00:00:33;;;;;;;30.08;20.75;;;;;;;15.62;85.79;100054.44;5055773;28;20075;-76
2021/09/14 00:03:00;;;;;;;22.83;18.67;;;;;;;15.68;86.26;100069.22;5055974;28;20400;-77
2021/09/14 00:05:27;;;;;;;27.88;20.27;;;;;;;15.63;85.96;100061.53;5055713;28;20057;-78
2021/09/14 00:07:57;;;;;;;28.35;19.38;;;;;;;15.63;86.01;100060.69;5055748;28;20144;-77
2021/09/14 00:10:24;;;;;;;29.13;18.50;;;;;;;15.61;86.12;100056.28;5055449;28;20060;-74
2021/09/14 00:12:51;;;;;;;22.25;17.95;;;;;;;15.59;86.00;100050.16;5055573;28;20048;-76
2021/09/14 00:15:19;;;;;;;21.45;17.95;;;;;;;15.58;86.19;100066.47;5054492;28;20115;-75
2021/09/14 00:17:46;;;;;;;24.20;17.77;;;;;;;15.43;86.06;100031.78;5087906;28;20052;-75
2021/09/14 00:20:13;;;;;;;19.38;17.10;;;;;;;15.61;85.93;100059.00;5054440;28;20059;-76
2021/09/14 00:22:40;;;;;;;20.83;17.58;;;;;;;15.55;86.35;100059.50;5054362;28;20065;-78
2021/09/14 00:25:07;;;;;;;21.23;17.90;;;;;;;15.55;86.61;100064.88;5037912;28;20076;-76
2021/09/14 00:27:34;;;;;;;21.13;17.90;;;;;;;15.49;86.17;100054.63;5054261;28;20044;-76
2021/09/14 00:30:03;;;;;;;20.77;17.77;;;;;;;15.52;86.10;100065.13;5053230;28;20057;-76
2021/09/14 00:32:30;;;;;;;19.42;16.70;;;;;;;15.36;85.95;100040.50;5055078;28;20033;-74
2021/09/14 00:34:57;;;;;;;21.10;16.90;;;;;;;15.56;85.75;100071.97;5054205;28;20052;-77
2021/09/14 00:37:25;;;;;;;21.42;16.15;;;;;;;15.55;85.59;100067.56;5087406;28;20055;-75
2021/09/14 00:39:52;;;;;;;21.45;16.77;;;;;;;15.52;86.23;100070.50;5087314;28;20052;-76
2021/09/14 00:42:19;;;;;;;24.92;17.05;;;;;;;15.42;87.16;100053.44;5054455;28;20037;-76
2021/09/14 00:44:46;;;;;;;21.73;17.90;;;;;;;15.31;87.39;100049.78;5054765;28;20056;-77
2021/09/14 00:47:14;;;;;;;21.52;17.50;;;;;;;15.37;87.39;100058.34;5053670;28;20052;-75
2021/09/14 00:49:41;;;;;;;24.15;16.50;;;;;;;15.32;87.08;100054.19;5054881;28;20037;-76
2021/09/14 00:52:08;;;;;;;21.80;16.85;;;;;;;15.39;87.42;100059.06;5087161;28;20053;-76
2021/09/14 00:54:41;;;;;;;22.52;17.85;;;;;;;15.36;87.33;100053.94;5070372;28;20138;-76
2021/09/14 00:57:11;;;;;;;22.55;17.45;;;;;;;15.12;88.16;100033.47;5069738;28;20132;-77
2021/09/14 00:59:38;;;;;;;24.38;18.17;;;;;;;15.21;88.77;100060.44;5053525;28;20073;-76
2021/09/14 01:02:06;;;;;;;21.92;16.45;;;;;;;15.06;88.79;100042.91;5053527;28;20045;-74
2021/09/14 01:04:34;;;;;;;19.02;16.35;;;;;;;15.10;89.16;100056.94;5037288;28;20365;-75
2021/09/14 01:07:02;;;;;;;21.27;16.75;;;;;;;14.75;89.46;100005.09;5054697;28;20446;-76
2021/09/14 01:09:32;;;;;;;22.05;17.05;;;;;;;14.98;89.15;100051.59;5054545;28;20060;-76
2021/09/14 01:11:59;;;;;;;20.95;16.50;;;;;;;15.01;89.49;100053.16;5053609;28;20112;-76
2021/09/14 01:14:29;;;;;;;;;;;;;;;14.95;89.64;100046.47;5070590;28;20045;-75
2021/09/14 01:16:56;;;;;;;17.98;15.50;;;;;;;14.88;90.30;100046.09;5054702;28;20293;-76
2021/09/14 01:19:23;;;;;;;18.23;15.38;;;;;;;14.83;89.81;100021.47;5054100;28;20114;-75
2021/09/14 01:21:50;;;;;;;18.65;13.93;;;;;;;14.81;89.81;100015.34;5026621;28;20067;-74
2021/09/14 01:24:17;;;;;;;17.23;12.75;;;;;;;14.80;89.13;100014.50;5059895;28;20049;-75
2021/09/14 01:26:53;;;;;;;23.98;13.10;;;;;;;14.94;88.93;100023.28;5074063;28;20075;-75
2021/09/14 01:32:14;;;;;;;14.40;11.48;;;;;;;14.99;88.96;100031.78;5054247;28;20411;-75
2021/09/14 01:34:41;;;;;;;15.05;11.88;;;;;;;14.98;88.80;100032.78;5053407;28;20064;-75
2021/09/14 01:37:08;;;;;;;18.13;12.13;;;;;;;14.99;88.69;100033.63;5070050;28;20057;-74
2021/09/14 01:39:36;;;;;;;14.18;10.63;;;;;;;14.98;89.02;100030.09;5070290;28;20041;-74
2021/09/14 01:42:03;;;;;;;16.38;11.57;;;;;;;14.93;88.67;100018.88;5055322;28;20107;-76
2021/09/14 01:44:31;;;;;;;15.10;11.75;;;;;;;14.86;88.53;100005.06;5058375;28;20047;-76
2021/09/14 01:46:59;;;;;;;12.68;10.98;;;;;;;14.98;88.47;100024.72;5073824;28;20130;-77
2021/09/14 01:49:28;;;;;;;15.95;12.25;;;;;;;15.06;88.01;100026.78;5058221;28;20071;-76
2021/09/14 01:51:55;;;;;;;17.83;12.38;;;;;;;14.95;88.05;100008.84;5056944;28;20318;-76
2021/09/14 01:54:23;;;;;;;16.27;11.23;;;;;;;14.98;88.40;100026.56;5024074;28;20159;-76
2021/09/14 01:56:49;;;;;;;14.07;11.20;;;;;;;14.72;89.19;99992.75;5056819;28;20049;-75
2021/09/14 01:59:17;;;;;;;13.88;11.55;;;;;;;14.92;89.02;100019.84;5090502;28;20055;-76
2021/09/14 02:01:57;;;;;;;14.25;11.10;;;;;;;14.74;88.44;99989.97;5056609;28;20434;-77
2021/09/14 02:07:31;;;;;;;15.45;12.52;;;;;;;14.90;89.67;100029.88;5056804;28;20045;-77
2021/09/14 02:59:39;;;;;;;16.45;13.50;;;;;;;13.98;94.64;99994.97;5072364;28;20049;-74
2021/09/14 03:02:08;;;;;;;17.50;12.63;;;;;;;13.93;94.75;99988.22;5088661;28;20045;-74
2021/09/14 03:04:38;;;;;;;16.88;13.52;;;;;;;13.90;95.19;99992.00;5088251;28;20080;-73
2021/09/14 03:07:05;;;;;;;15.48;13.45;;;;;;;13.90;95.04;99992.00;5072189;28;20049;-81
2021/09/14 03:09:37;;;;;;;20.05;13.93;;;;;;;13.79;95.24;99978.59;5056819;28;20049;-79
2021/09/14 03:12:06;;;;;;;16.20;13.23;;;;;;;13.83;95.46;99993.44;5056116;28;20048;-80
2021/09/14 03:14:35;;;;;;;16.67;13.45;;;;;;;13.82;95.20;99981.03;5072124;28;20052;-78
2021/09/14 03:17:03;;;;;;;17.33;12.93;;;;;;;13.80;95.07;99970.44;5055336;28;20059;-78
2021/09/14 03:19:31;;;;;;;16.05;13.07;;;;;;;13.72;95.26;99951.38;5072676;28;20060;-80
2021/09/14 03:21:59;;;;;;;18.40;13.45;;;;;;;13.78;95.88;99968.84;5089029;28;20048;-78
2021/09/14 03:24:28;;;;;;;16.05;12.50;;;;;;;13.76;95.74;99958.22;5055568;28;20041;-78
2021/09/14 03:26:58;;;;;;;13.38;11.95;;;;;;;13.76;95.68;99962.72;5071746;28;20052;-78
2021/09/14 03:29:26;;;;;;;18.30;12.40;;;;;;;13.69;95.69;99940.91;5056933;28;20045;-77
2021/09/14 03:31:53;;;;;;;13.60;12.02;;;;;;;13.70;95.68;99947.97;5072033;28;20041;-78
2021/09/14 03:34:20;;;;;;;13.82;11.30;;;;;;;13.73;95.67;99950.41;5072241;28;20044;-77
2021/09/14 03:36:49;;;;;;;12.57;11.25;;;;;;;13.76;95.42;99946.63;5089132;28;20067;-75
2021/09/14 03:39:16;;;;;;;14.75;11.88;;;;;;;13.73;95.64;99947.72;5075556;28;20059;-76
2021/09/14 03:41:45;;;;;;;14.48;11.30;;;;;;;13.65;96.07;99924.19;5062927;28;20167;-76
2021/09/14 03:44:14;;;;;;;15.35;11.25;;;;;;;13.55;95.66;99917.81;5076686;28;20136;-76
2021/09/14 03:46:41;;;;;;;15.02;11.52;;;;;;;13.74;95.58;99949.44;5072049;28;20041;-80
2021/09/14 03:49:09;;;;;;;13.70;10.43;;;;;;;13.77;95.59;99949.19;5056845;28;20049;-80
2021/09/14 03:51:39;;;;;;;12.18;10.40;;;;;;;13.73;95.68;99947.72;5056480;28;20135;-80
2021/09/14 03:54:06;;;;;;;14.82;10.50;;;;;;;13.78;95.94;99952.75;5071714;28;20094;-79
2021/09/14 03:56:33;;;;;;;13.52;10.25;;;;;;;13.83;95.70;99955.91;5055170;28;20131;-79
2021/09/14 03:59:02;;;;;;;12.32;10.43;;;;;;;13.80;95.40;99964.19;5089418;28;20053;-83
2021/09/14 04:01:38;;;;;;;14.57;11.02;;;;;;;13.51;95.28;99921.72;5071577;28;20079;-79
2021/09/14 04:04:38;;;;;;;12.45;10.23;;;;;;;13.59;95.38;99935.41;5072407;28;20041;-80
2021/09/14 04:07:02;;;;;;;14.57;10.65;;;;;;;13.82;95.65;99964.94;5057471;28;20400;-81
2021/09/14 04:09:29;;;;;;;12.25;10.55;;;;;;;13.65;95.95;99944.78;5055825;28;20060;-79
2021/09/14 04:12:04;;;;;;;14.10;10.50;;;;;;;13.73;95.93;99965.66;5054803;28;20045;-80
2021/09/14 04:14:32;;;;;;;15.00;10.23;;;;;;;13.73;96.45;99977.22;5038702;28;20080;-84
2021/09/14 04:17:01;;;;;;;13.43;10.70;;;;;;;13.63;96.78;99958.34;5053623;28;20044;-82
2021/09/14 04:19:29;;;;;;;13.40;9.75;;;;;;;13.55;96.61;99950.88;5038136;28;20076;-79
2021/09/14 04:21:58;;;;;;;14.80;10.18;;;;;;;13.52;96.19;99950.25;5071884;28;20049;-82
2021/09/14 04:24:34;;;;;;;13.77;11.27;;;;;;;13.60;96.54;99963.91;5088918;28;20136;-78
2021/09/14 04:27:04;;;;;;;11.82;10.00;;;;;;;13.47;96.92;99941.69;5095782;28;20048;-80
2021/09/14 04:29:31;;;;;;;16.58;10.15;;;;;;;13.28;96.77;99910.91;5057285;28;20402;-80
2021/09/14 04:31:58;;;;;;;13.07;10.75;;;;;;;13.29;96.89;99912.63;5071298;28;20055;-77
2021/09/14 04:34:25;;;;;;;13.07;10.50;;;;;;;13.47;96.85;99947.94;5054601;28;20178;-81
2021/09/14 04:36:53;;;;;;;13.45;10.65;;;;;;;13.46;97.02;99931.94;5087859;28;20041;-81
2021/09/14 04:39:21;;;;;;;20.52;11.00;;;;;;;13.50;96.97;99936.94;5071140;28;20052;-79
2021/09/14 04:41:51;;;;;;;14.75;11.38;;;;;;;13.46;97.08;99923.91;5054413;28;20209;-80
2021/09/14 04:44:18;;;;;;;15.55;10.65;;;;;;;13.47;97.20;99928.28;5071132;28;20055;-82
2021/09/14 04:46:47;;;;;;;16.50;11.70;;;;;;;13.38;97.66;99922.66;5053829;28;20441;-80
2021/09/14 04:49:15;;;;;;;14.02;11.88;;;;;;;13.37;98.17;99923.63;5070388;28;20044;-74
2021/09/14 04:51:42;;;;;;;16.80;11.07;;;;;;;13.44;97.53;99932.91;5052841;28;20063;-73
2021/09/14 04:54:10;;;;;;;13.93;10.70;;;;;;;13.36;97.61;99907.66;5052685;28;20053;-76
2021/09/14 04:56:37;;;;;;;15.23;11.43;;;;;;;13.36;97.86;99915.69;5053458;28;20068;-75
2021/09/14 04:59:04;;;;;;;15.02;10.30;;;;;;;13.48;98.10;99938.03;5036790;28;20338;-75
2021/09/14 05:01:31;;;;;;;14.93;10.95;;;;;;;13.46;98.63;99931.94;5036468;28;20056;-79
2021/09/14 05:03:59;;;;;;;17.58;10.52;;;;;;;13.34;97.75;99917.66;5052982;28;20044;-78
2021/09/14 05:06:30;;;;;;;13.23;9.88;;;;;;;13.46;97.68;99935.50;5037374;28;20053;-75
2021/09/14 05:08:59;;;;;;;16.35;10.90;;;;;;;13.44;98.61;99935.56;5053199;28;20128;-76
2021/09/14 05:11:27;;;;;;;17.15;11.23;;;;;;;13.33;98.98;99914.09;5037078;28;20049;-75
2021/09/14 05:13:54;;;;;;;15.38;11.23;;;;;;;13.38;98.58;99925.31;5069993;28;20073;-75
2021/09/14 05:16:23;;;;;;;12.38;10.45;;;;;;;13.41;98.31;99933.13;5069258;28;20143;-72
2021/09/14 05:19:34;;;;;;;13.68;11.18;;;;;;;13.43;98.27;99925.84;5052245;28;20457;-74
2021/09/14 05:22:02;;;;;;;14.23;10.23;;;;;;;13.31;98.27;99913.38;5069126;28;20132;-77
2021/09/14 05:24:31;;;;;;;11.07;9.65;;;;;;;13.38;98.29;99922.66;5069413;28;20037;-73
2021/09/14 05:26:58;;;;;;;14.18;10.52;;;;;;;13.38;98.59;99938.72;5069468;28;20049;-74
2021/09/14 05:29:25;;;;;;;12.00;10.65;;;;;;;13.40;98.30;99934.09;5050104;28;20045;-73
2021/09/14 05:31:55;;;;;;;13.55;10.57;;;;;;;13.32;98.43;99917.75;5053447;28;20045;-76
2021/09/14 05:34:23;;;;;;;14.70;10.50;;;;;;;13.37;99.22;99920.94;5036285;28;20048;-76
2021/09/14 05:36:51;;;;;;;13.10;10.77;;;;;;;13.34;99.40;99898.88;5069507;28;20132;-74
2021/09/14 05:39:21;;;;;;;15.10;10.65;;;;;;;13.41;99.26;99914.34;5050323;28;20345;-73
2021/09/14 05:41:49;;;;;;;16.45;11.70;;;;;;;13.46;99.42;99913.19;5036400;28;20438;-75
2021/09/14 05:44:16;;;;;;;19.48;11.98;;;;;;;13.49;99.39;99912.94;5052484;28;20052;-78
2021/09/14 05:46:43;;;;;;;15.93;11.00;;;;;;;13.47;98.50;99896.13;5053046;28;20446;-74
2021/09/14 05:49:11;;;;;;;14.57;10.88;;;;;;;13.62;98.20;99913.69;5036383;28;20048;-74
2021/09/14 05:51:38;;;;;;;16.55;11.30;;;;;;;13.66;98.14;99909.81;5050082;28;20324;-76
2021/09/14 05:54:06;;;;;;;16.05;11.68;;;;;;;13.72;98.29;99913.81;5052517;28;20041;-73
2021/09/14 05:56:35;;;;;;;12.73;10.70;;;;;;;13.78;98.15;99915.19;5069310;28;20607;-73
2021/09/14 05:59:11;;;;;;;13.43;10.75;;;;;;;13.83;97.55;99918.34;5068004;28;20096;-72
2021/09/14 06:01:38;;;;;;;13.23;10.32;;;;;;;13.76;97.50;99904.56;5088833;28;20345;-73
2021/09/14 06:04:05;;;;;;;15.50;10.35;;;;;;;13.97;97.19;99931.53;5054043;28;20055;-73
2021/09/14 06:06:34;;;;;;;13.68;9.75;;;;;;;14.01;97.21;99928.59;5069569;28;20057;-76
2021/09/14 06:09:01;;;;;;;16.20;9.63;;;;;;;14.00;97.04;99914.31;5050995;28;20049;-75
2021/09/14 06:11:31;;;;;;;10.82;9.63;;;;;;;13.99;97.17;99907.25;5068002;28;20057;-73
2021/09/14 06:13:59;;;;;;;15.82;9.07;;;;;;;14.13;95.72;99914.22;5035503;28;20513;-75
2021/09/14 06:16:26;;;;;;;12.80;8.13;;;;;;;14.29;95.65;99937.13;5034521;28;20056;-73
2021/09/14 06:18:53;;;;;;;10.98;7.90;;;;;;;14.28;95.69;99932.75;5068019;28;20403;-72
2021/09/14 06:21:20;;;;;;;10.95;8.38;;;;;;;14.33;96.02;99934.06;5068142;28;20048;-73
2021/09/14 06:23:47;;;;;;;14.43;9.70;;;;;;;14.28;95.61;99919.31;5051445;28;20049;-73
2021/09/14 06:26:15;;;;;;;15.20;9.85;;;;;;;14.40;96.09;99929.06;5035200;28;20515;-75
2021/09/14 06:28:45;;;;;;;12.50;9.07;;;;;;;14.31;96.58;99925.31;5068480;28;20084;-74
2021/09/14 06:31:13;;;;;;;14.65;9.73;;;;;;;14.38;97.06;99931.88;5052996;28;20394;-74
2021/09/14 06:33:42;;;;;;;12.45;10.45;;;;;;;14.37;97.11;99924.81;5054827;28;20057;-74
2021/09/14 06:36:12;;;;;;;17.25;9.65;;;;;;;14.46;96.87;99930.41;5022380;28;20095;-74
2021/09/14 06:38:39;;;;;;;14.65;9.68;;;;;;;14.49;96.22;99933.69;5055139;28;20136;-76
2021/09/14 06:41:06;;;;;;;13.60;9.00;;;;;;;14.56;96.55;99933.19;5052967;28;20063;-75
2021/09/14 06:43:37;;;;;;;19.95;9.60;;;;;;;14.57;96.00;99925.00;5073049;28;20411;-74
2021/09/14 06:46:17;;;;;;;13.13;9.65;;;;;;;14.58;96.04;99924.03;5055426;28;20431;-76
2021/09/14 06:48:54;;;;;;;21.30;10.00;;;;;;;14.70;94.83;99924.84;5072328;28;20438;-74
2021/09/14 06:51:21;;;;;;;19.98;9.25;;;;;;;14.73;94.86;99921.94;5055812;28;20418;-75
2021/09/14 06:53:48;;;;;;;15.60;9.90;;;;;;;14.76;95.04;99931.59;5056644;28;20144;-74
2021/09/14 06:56:15;;;;;;;15.60;9.52;;;;;;;14.73;93.53;99911.19;5072567;28;20048;-75
2021/09/14 06:58:43;;;;;;;13.95;9.07;;;;;;;14.77;92.81;99898.38;5072285;28;20106;-74
2021/09/14 07:01:19;;;;;;;12.45;8.73;;;;;;;14.99;92.18;99901.97;5055850;28;20322;-74
2021/09/14 07:03:46;;;;;;;12.40;8.38;;;;;;;15.16;92.16;99909.44;5056851;28;20317;-75
2021/09/14 07:06:13;;;;;;;10.57;8.40;;;;;;;15.20;92.33;99913.56;5055239;28;20041;-74
2021/09/14 07:08:41;;;;;;;11.27;8.52;;;;;;;15.36;91.58;99911.44;5088677;28;20048;-74
2021/09/14 07:11:08;;;;;;;13.95;9.18;;;;;;;15.41;90.94;99911.91;5056368;28;20487;-76
2021/09/14 07:13:34;;;;;;;17.63;7.93;;;;;;;15.46;91.29;99917.72;5088489;28;20041;-74
2021/09/14 07:16:01;;;;;;;17.58;8.43;;;;;;;15.54;91.14;99917.94;5056413;28;20041;-76
2021/09/14 07:18:28;;;;;;;12.07;8.55;;;;;;;15.65;90.38;99918.81;5088841;28;20037;-74
2021/09/14 07:20:55;;;;;;;22.05;9.02;;;;;;;15.70;90.59;99906.66;5056384;28;20052;-74
2021/09/14 07:23:24;;;;;;;14.98;8.88;;;;;;;15.72;90.47;99920.00;5055213;28;20040;-76
2021/09/14 07:25:51;;;;;;;15.80;8.18;;;;;;;15.75;90.92;99923.25;5071786;28;20103;-74
2021/09/14 07:28:18;;;;;;;12.82;9.02;;;;;;;15.72;91.40;99917.31;5056180;28;20114;-75
2021/09/14 07:30:45;;;;;;;16.02;8.68;;;;;;;15.77;91.53;99925.84;5056348;28;20453;-75
2021/09/14 07:33:13;;;;;;;16.50;9.48;;;;;;;15.84;91.46;99932.38;5056182;28;20135;-75
2021/09/14 07:35:40;;;;;;;13.13;8.77;;;;;;;15.97;90.45;99909.81;5056261;28;20048;-75
2021/09/14 07:38:07;;;;;;;15.07;8.95;;;;;;;16.09;90.42;99911.44;5055766;28;20109;-75
2021/09/14 07:40:34;;;;;;;12.25;8.32;;;;;;;16.18;90.61;99915.13;5055860;28;20041;-75
2021/09/14 07:43:03;;;;;;;12.50;8.73;;;;;;;16.33;90.30;99917.47;5046317;28;20041;-76
2021/09/14 07:45:30;;;;;;;9.95;7.82;;;;;;;16.34;90.79;99909.22;5054663;28;20065;-73
2021/09/14 07:47:57;;;;;;;11.73;8.13;;;;;;;16.46;88.58;99901.91;5071363;28;20132;-77
2021/09/14 07:50:24;;;;;;;10.45;7.80;;;;;;;16.76;88.30;99927.03;5055491;28;20064;-76
2021/09/14 07:52:51;;;;;;;14.13;7.70;;;;;;;16.79;88.05;99924.06;5055048;28;20075;-75
2021/09/14 07:55:18;;;;;;;11.50;7.38;;;;;;;16.78;88.49;99921.53;5054044;28;20327;-74
2021/09/14 07:57:45;;;;;;;10.68;7.90;;;;;;;16.73;88.77;99907.59;5055514;28;20049;-71
2021/09/14 08:00:12;;;;;;;15.93;7.18;;;;;;;17.15;87.41;99934.31;5055630;28;20051;-71
2021/09/14 08:02:39;;;;;;;12.55;6.65;;;;;;;17.26;85.82;99924.41;5055399;28;20508;-70
2021/09/14 08:05:07;;;;;;;16.75;7.38;;;;;;;17.41;85.12;99925.66;5055270;28;20049;-70
2021/09/14 08:07:34;;;;;;;16.63;7.38;;;;;;;17.40;86.03;99928.47;5055288;28;20044;-70
2021/09/14 08:10:01;;;;;;;12.85;7.50;;;;;;;17.65;85.08;99927.00;5055146;28;20047;-70
2021/09/14 08:12:28;;;;;;;11.77;6.75;;;;;;;17.68;84.54;99918.66;5054885;28;20032;-71
2021/09/14 08:14:55;;;;;;;10.95;6.85;;;;;;;17.65;86.02;99927.88;5053878;28;20102;-71
2021/09/14 08:17:21;;;;;;;12.07;7.18;;;;;;;17.65;85.68;99922.47;5054954;28;20095;-70
2021/09/14 08:19:48;;;;;;;9.98;6.93;;;;;;;17.65;85.39;99910.81;5053932;28;20064;-71
2021/09/14 08:22:15;;;;;;;9.80;7.00;;;;;;;18.05;84.42;99923.22;5054761;28;20446;-71
2021/09/14 08:24:45;;;;;;;10.55;6.97;;;;;;;18.01;83.87;99924.50;5086307;28;20064;-70
2021/09/14 08:27:12;;;;;;;10.32;6.70;;;;;;;18.09;82.75;99917.53;5070282;28;20055;-70
2021/09/14 08:29:39;;;;;;;14.68;6.22;;;;;;;18.26;83.00;99919.44;5054869;28;20086;-70
2021/09/14 08:32:06;;;;;;;11.48;6.13;;;;;;;18.51;81.96;99924.31;5053804;28;20505;-69
2021/09/14 08:34:34;;;;;;;12.07;7.68;;;;;;;18.30;82.63;99904.63;5054717;28;20063;-69
2021/09/14 08:37:01;;;;;;;12.95;6.70;;;;;;;18.39;82.70;99918.22;5054787;28;20049;-69
2021/09/14 08:39:28;;;;;;;12.55;6.80;;;;;;;18.52;82.14;99932.25;5070055;28;20776;-70
2021/09/14 08:41:56;;;;;;;10.93;6.45;;;;;;;18.63;81.63;99933.88;5054764;28;20053;-68
2021/09/14 08:44:23;;;;;;;12.82;6.20;;;;;;;18.68;81.18;99922.63;5054874;28;20044;-68
2021/09/14 08:46:50;;;;;;;8.02;6.10;;;;;;;18.74;83.11;99911.19;5054878;28;20049;-69
2021/09/14 08:49:16;;;;;;;8.70;5.13;;;;;;;18.82;82.72;99910.44;5054410;28;20510;-70
2021/09/14 08:51:43;;;;;;;8.80;5.35;;;;;;;18.90;82.34;99894.28;5053921;28;20372;-69
2021/09/14 08:54:10;;;;;;;12.77;5.65;;;;;;;19.08;82.44;99901.56;5054717;28;20048;-69
2021/09/14 08:56:37;;;;;;;10.60;6.07;;;;;;;19.12;82.43;99900.25;5054585;28;20036;-69
2021/09/14 08:59:04;;;;;;;8.13;4.93;;;;;;;19.12;82.31;99890.28;5036184;28;20053;-69
2021/09/14 09:01:33;;;;;;;9.50;5.55;;;;;;;19.19;82.18;99895.06;5053903;28;20094;-70
2021/09/14 09:04:05;;;;;;;8.57;5.30;;;;;;;19.24;82.79;99900.88;5053680;28;20087;-70
2021/09/14 09:06:37;;;;;;;9.30;5.70;;;;;;;19.40;81.17;99911.81;5053900;28;20426;-70
2021/09/14 09:09:14;;;;;;;7.65;5.35;;;;;;;19.49;81.95;99909.16;5053723;28;20723;-70
2021/09/14 09:12:02;;;;;;;11.93;4.70;;;;;;;19.66;80.55;99907.41;5054005;28;20049;-69
2021/09/14 09:14:43;;;;;;;8.02;4.65;;;;;;;19.68;80.93;99911.66;5054467;28;20041;-69
2021/09/14 09:17:14;;;;;;;8.52;5.22;;;;;;;19.77;79.57;99906.31;5054527;28;20053;-71
2021/09/14 09:19:54;;;;;;;14.23;7.47;;;;;;;19.85;79.25;99917.19;5054694;28;20044;-70
2021/09/14 09:22:23;;;;;;;7.85;5.13;;;;;;;19.77;79.40;99900.91;5054078;28;20386;-71
2021/09/14 09:24:52;;;;;;;10.85;5.28;;;;;;;19.95;80.22;99928.75;5054396;28;20060;-71
2021/09/14 09:27:23;;;;;;;12.63;5.32;;;;;;;20.10;78.54;99911.06;5054474;28;20045;-71
2021/09/14 09:30:02;;;;;;;9.93;4.30;;;;;;;20.11;79.43;99924.47;5054446;28;20045;-71
2021/09/14 09:32:46;;;;;;;7.43;4.70;;;;;;;20.15;79.50;99927.69;5053400;28;20037;-71
2021/09/14 09:35:25;;;;;;;12.45;5.93;;;;;;;20.25;78.89;99922.16;5069930;28;20095;-71
2021/09/14 09:37:56;;;;;;;16.77;5.10;;;;;;;20.27;78.55;99931.78;5053683;28;20041;-70
2021/09/14 09:40:33;;;;;;;10.82;4.97;;;;;;;20.34;78.72;99935.56;5052448;28;20045;-70
2021/09/14 09:43:05;;;;;;;9.05;5.70;;;;;;;20.40;77.26;99927.78;5068009;28;20568;-70
2021/09/14 09:45:33;;;;;;;9.52;5.57;;;;;;;20.44;76.46;99921.03;5052598;28;20045;-71
2021/09/14 09:48:01;;;;;;;7.05;5.00;;;;;;;20.57;76.72;99926.84;5052530;28;20052;-70
2021/09/14 09:50:29;;;;;;;11.57;4.93;;;;;;;20.66;77.55;99938.56;5051441;28;20064;-70
2021/09/14 09:52:57;;;;;;;8.85;5.18;;;;;;;20.68;75.76;99924.81;5052853;28;20124;-71
2021/09/14 09:55:24;;;;;;;8.35;5.50;;;;;;;20.78;76.67;99928.25;5054201;28;20045;-70
2021/09/14 09:57:52;;;;;;;13.73;6.05;;;;;;;20.87;75.63;99926.44;5054319;28;20119;-70
2021/09/14 10:00:19;;;;;;;11.00;6.00;;;;;;;20.97;76.20;99921.69;5069668;28;20045;-70
2021/09/14 10:03:00;;;;;;;8.98;4.78;;;;;;;21.05;75.23;99922.69;5054085;28;20045;-70
2021/09/14 10:05:31;;;;;;;7.97;4.80;;;;;;;21.09;74.70;99926.78;5057689;28;20057;-70
2021/09/14 10:08:08;;;;;;;12.63;4.93;;;;;;;21.12;74.68;99912.88;5058114;28;20045;-70
2021/09/14 10:10:37;;;;;;;16.48;5.65;;;;;;;21.08;76.12;99919.66;5057572;28;20436;-70
2021/09/14 10:13:06;;;;;;;7.43;4.40;;;;;;;21.25;76.93;99915.91;5057693;28;20045;-71
2021/09/14 10:15:41;;;;;;;12.80;5.43;;;;;;;21.33;75.10;99911.50;5057481;28;20061;-71
2021/09/14 10:18:09;;;;;;;10.38;5.20;;;;;;;21.34;76.08;99903.19;5057773;28;20122;-71
2021/09/14 10:20:42;;;;;;;10.90;5.32;;;;;;;21.52;75.18;99908.44;5057613;28;20094;-73
2021/09/14 10:23:19;;;;;;;12.13;6.07;;;;;;;21.60;74.89;99904.00;5057432;28;20496;-71
2021/09/14 10:25:51;;;;;;;30.52;7.30;;;;;;;21.58;75.69;99905.03;5057394;28;20056;-72
2021/09/14 10:28:20;;;;;;;8.25;5.45;;;;;;;21.54;75.86;99905.56;5039955;28;20057;-71
2021/09/14 10:30:48;;;;;;;8.07;5.18;;;;;;;21.54;74.54;99891.97;5072470;28;20048;-72
2021/09/14 10:33:23;;;;;;;10.13;5.25;;;;;;;21.73;74.67;99890.78;5056382;28;20041;-71
2021/09/14 10:35:53;;;;;;;10.40;5.57;;;;;;;21.98;72.49;99896.16;5055403;28;20048;-71
2021/09/14 10:38:21;;;;;;;10.68;5.10;;;;;;;22.14;73.30;99888.94;5055984;28;20135;-72
2021/09/14 10:40:50;;;;;;;7.53;4.97;;;;;;;22.39;71.87;99886.97;5054690;28;20045;-71
2021/09/14 10:43:35;;;;;;;11.07;4.97;;;;;;;22.60;72.59;99883.63;5055494;28;20087;-73
2021/09/14 10:46:02;;;;;;;9.40;4.78;;;;;;;22.82;70.81;99885.72;5055343;28;20045;-71
2021/09/14 10:48:34;;;;;;;10.82;5.50;;;;;;;22.89;70.13;99876.63;5054442;28;20044;-73
2021/09/14 10:51:13;;;;;;;6.82;4.85;;;;;;;22.92;69.20;99881.72;5057286;28;20115;-71
2021/09/14 10:53:40;;;;;;;8.90;4.78;;;;;;;22.87;69.06;99878.69;5055907;28;20425;-71
2021/09/14 10:56:10;;;;;;;6.70;4.22;;;;;;;22.90;69.36;99870.19;5056939;28;20345;-72
2021/09/14 10:58:43;;;;;;;5.90;4.65;;;;;;;22.84;71.02;99883.66;5056432;28;20051;-70
2021/09/14 11:01:21;;;;;;;7.35;4.90;;;;;;;22.80;69.84;99880.47;5054988;28;20032;-70
2021/09/14 11:04:07;;;;;;;7.93;5.28;;;;;;;22.78;70.59;99877.91;5055732;28;20037;-70
2021/09/14 11:06:34;;;;;;;8.55;5.22;;;;;;;22.73;69.14;99877.63;5055994;28;20067;-70
2021/09/14 11:09:04;;;;;;;8.63;4.55;;;;;;;22.60;71.75;99877.38;5056872;28;20107;-70
2021/09/14 11:11:31;;;;;;;6.50;4.60;;;;;;;22.64;71.96;99874.09;5056478;28;20045;-70
2021/09/14 11:13:58;;;;;;;7.43;4.38;;;;;;;22.68;72.00;99880.03;5054611;28;20090;-72
2021/09/14 11:16:26;;;;;;;8.52;4.00;;;;;;;22.70;70.75;99877.97;5087200;28;20098;-71
2021/09/14 11:18:58;;;;;;;13.38;4.25;;;;;;;22.69;72.33;99878.13;5054794;28;20430;-71
2021/09/14 11:21:25;;;;;;;8.85;4.63;;;;;;;22.68;72.28;99879.16;5055165;28;20045;-70
2021/09/14 11:23:52;;;;;;;6.20;4.15;;;;;;;22.68;72.19;99879.16;5070717;28;20037;-70
2021/09/14 11:26:20;;;;;;;7.70;4.38;;;;;;;22.64;71.98;99892.28;5054645;28;20318;-71
2021/09/14 11:29:00;;;;;;;9.02;4.13;;;;;;;22.61;73.28;99888.06;5055092;28;20048;-71
2021/09/14 11:31:29;;;;;;;8.70;4.32;;;;;;;22.60;74.02;99888.25;5056394;28;20041;-69
2021/09/14 11:33:56;;;;;;;5.55;3.75;;;;;;;22.64;73.54;99886.84;5055106;28;20045;-70
2021/09/14 11:36:24;;;;;;;5.07;3.47;;;;;;;22.50;72.50;99861.25;5056308;28;20372;-70
2021/09/14 11:39:17;;;;;;;13.07;4.93;;;;;;;22.69;70.51;99887.16;5055191;28;20122;-71
2021/09/14 11:41:45;;;;;;;90.82;9.07;;;;;;;22.75;70.40;99881.00;5055690;28;20064;-70
2021/09/14 11:44:24;;;;;;;19.45;4.75;;;;;;;22.79;69.96;99882.31;5055249;28;20341;-70
2021/09/14 11:46:51;;;;;;;19.50;4.22;;;;;;;22.74;68.90;99883.91;5056099;28;20045;-70
2021/09/14 11:49:27;;;;;;;5.13;3.45;;;;;;;22.68;69.18;99880.03;5088237;28;20048;-70
2021/09/14 11:52:00;;;;;;;6.70;3.15;;;;;;;22.71;69.15;99882.38;5055875;28;20426;-69
2021/09/14 11:54:37;;;;;;;6.10;3.30;;;;;;;22.70;69.03;99882.59;5055775;28;20037;-70
2021/09/14 11:57:04;;;;;;;6.72;3.45;;;;;;;22.76;68.98;99882.69;5055811;28;20041;-70
2021/09/14 11:59:35;;;;;;;6.18;3.22;;;;;;;22.81;69.42;99875.88;5055566;28;20045;-70
2021/09/14 12:02:03;;;;;;;4.43;2.88;;;;;;;23.06;70.27;99881.97;5070870;28;20041;-70
2021/09/14 12:04:30;;;;;;;6.10;3.10;;;;;;;23.27;68.75;99873.09;5054101;28;20438;-71
2021/09/14 12:07:00;;;;;;;4.60;3.13;;;;;;;23.54;67.28;99876.25;5047291;28;20037;-70
2021/09/14 12:09:29;;;;;;;4.15;3.00;;;;;;;23.73;63.81;99858.53;5055294;28;20047;-71
2021/09/14 12:12:01;;;;;;;3.05;2.65;;;;;;;23.80;63.01;99879.59;5055431;28;20342;-71
2021/09/14 12:14:28;;;;;;;7.78;3.08;;;;;;;23.97;63.61;99867.44;5055570;28;20048;-71
2021/09/14 12:17:02;;;;;;;4.70;3.05;;;;;;;23.98;62.21;99874.59;5055489;28;20079;-71
2021/09/14 12:19:31;;;;;;;15.23;10.88;;;;;;;23.96;63.36;99871.22;5054406;28;20466;-71
2021/09/14 12:21:58;;;;;;;19.95;12.90;;;;;;;23.91;63.21;99870.09;5055225;28;20488;-71
2021/09/14 12:24:25;;;;;;;16.02;12.52;;;;;;;23.76;63.28;99872.81;5054302;28;20147;-71
2021/09/14 12:26:55;;;;;;;7.03;4.15;;;;;;;23.59;63.95;99864.84;5053516;28;20048;-71